createdAt,value
2018-04-17T00:01:38.837Z,4.97
2018-04-17T00:04:07.703Z,4.60
2018-04-17T00:06:35.796Z,3.97
2018-04-17T00:09:03.875Z,5.20
2018-04-17T00:11:31.996Z,4.87
2018-04-17T00:14:00.860Z,4.07
2018-04-17T00:16:28.947Z,4.00
2018-04-17T00:18:57.038Z,3.87
2018-04-17T00:21:25.140Z,4.37
2018-04-17T00:23:54.012Z,4.23
2018-04-17T00:26:22.117Z,4.40
2018-04-17T00:28:50.201Z,4.23
2018-04-17T00:31:18.309Z,4.60
2018-04-17T00:33:46.393Z,4.63
2018-04-17T00:36:15.240Z,4.40
2018-04-17T00:38:43.328Z,4.23
2018-04-17T00:41:11.420Z,4.40
2018-04-17T00:43:39.555Z,4.47
2018-04-17T00:46:07.648Z,4.47
2018-04-17T00:48:36.568Z,4.33
2018-04-17T00:51:04.691Z,4.80
2018-04-17T00:53:44.438Z,4.23
2018-04-17T00:56:12.548Z,4.50
2018-04-17T00:58:40.686Z,4.77
2018-04-17T01:01:08.779Z,5.00
2018-04-17T01:03:36.877Z,5.30
2018-04-17T01:06:04.999Z,4.60
2018-04-17T01:08:33.101Z,5.50
2018-04-17T01:11:02.623Z,4.77
2018-04-17T01:13:32.053Z,5.23
2018-04-17T01:16:01.447Z,4.90
2018-04-17T01:18:30.805Z,5.17
2018-04-17T01:21:00.174Z,4.40
2018-04-17T01:23:29.532Z,5.20
2018-04-17T01:25:58.884Z,4.70
2018-04-17T01:28:28.271Z,5.43
2018-04-17T01:30:57.628Z,5.00
2018-04-17T01:33:27.021Z,4.93
2018-04-17T01:35:56.378Z,5.33
2018-04-17T01:38:25.755Z,5.37
2018-04-17T01:40:55.103Z,6.00
2018-04-17T01:43:24.533Z,6.03
2018-04-17T01:45:53.927Z,5.90
2018-04-17T01:48:23.322Z,5.97
2018-04-17T01:50:52.697Z,5.83
2018-04-17T01:53:22.080Z,6.73
2018-04-17T01:55:51.481Z,6.73
2018-04-17T01:58:20.777Z,6.80
2018-04-17T02:00:50.190Z,7.07
2018-04-17T02:03:19.624Z,7.23
2018-04-17T02:05:48.972Z,7.03
2018-04-17T02:08:18.361Z,7.90
2018-04-17T02:10:47.764Z,6.57
2018-04-17T02:13:17.150Z,6.83
2018-04-17T02:15:46.534Z,7.47
2018-04-17T02:18:15.904Z,7.43
2018-04-17T02:20:45.278Z,6.57
2018-04-17T02:23:14.635Z,6.60
2018-04-17T02:25:44.046Z,6.40
2018-04-17T02:28:13.419Z,6.73
2018-04-17T02:30:42.803Z,6.83
2018-04-17T02:33:12.175Z,7.67
2018-04-17T02:35:41.549Z,7.20
2018-04-17T02:38:10.899Z,7.37
2018-04-17T02:40:40.259Z,7.03
2018-04-17T02:43:09.701Z,6.70
2018-04-17T02:45:39.070Z,7.37
2018-04-17T02:48:08.424Z,7.00
2018-04-17T02:50:37.826Z,6.97
2018-04-17T02:53:07.221Z,6.10
2018-04-17T02:55:36.599Z,5.93
2018-04-17T02:58:05.931Z,6.37
2018-04-17T03:00:35.284Z,6.53
2018-04-17T03:03:04.621Z,6.93
2018-04-17T03:05:34.040Z,6.80
2018-04-17T03:08:03.395Z,7.70
2018-04-17T03:10:32.800Z,7.93
2018-04-17T03:13:02.150Z,7.30
2018-04-17T03:15:31.514Z,7.77
2018-04-17T03:18:00.887Z,7.73
2018-04-17T03:20:30.230Z,7.00
2018-04-17T03:22:59.591Z,7.30
2018-04-17T03:25:28.954Z,6.97
2018-04-17T03:27:58.352Z,7.27
2018-04-17T03:30:27.716Z,6.40
2018-04-17T03:32:57.067Z,6.90
2018-04-17T03:35:26.467Z,7.70
2018-04-17T03:37:55.817Z,7.20
2018-04-17T03:40:25.205Z,7.30
2018-04-17T03:42:54.555Z,7.27
2018-04-17T03:45:23.931Z,7.37
2018-04-17T03:47:53.339Z,7.47
2018-04-17T03:50:22.705Z,7.03
2018-04-17T03:52:52.042Z,8.00
2018-04-17T03:55:21.399Z,7.10
2018-04-17T03:57:50.718Z,7.80
2018-04-17T04:00:20.096Z,7.20
2018-04-17T04:02:49.419Z,7.83
2018-04-17T04:05:18.776Z,7.77
2018-04-17T04:07:48.117Z,7.33
2018-04-17T04:10:17.470Z,7.87
2018-04-17T04:12:46.857Z,6.83
2018-04-17T04:15:16.205Z,7.23
2018-04-17T04:17:51.492Z,7.80
2018-04-17T04:20:26.875Z,8.17
2018-04-17T04:23:02.143Z,7.60
2018-04-17T04:25:52.271Z,7.70
2018-04-17T04:28:21.632Z,7.57
2018-04-17T04:30:50.991Z,7.60
2018-04-17T04:33:20.339Z,8.00
2018-04-17T04:35:49.698Z,7.27
2018-04-17T04:38:19.058Z,7.23
2018-04-17T04:40:48.416Z,6.90
2018-04-17T04:43:17.757Z,11.60
2018-04-17T04:45:47.195Z,8.70
2018-04-17T04:48:16.555Z,6.97
2018-04-17T04:50:45.959Z,7.43
2018-04-17T04:53:15.377Z,6.87
2018-04-17T04:55:44.722Z,6.57
2018-04-17T04:58:14.079Z,6.60
2018-04-17T05:00:43.449Z,14.70
2018-04-17T05:03:12.810Z,5.60
2018-04-17T05:05:42.161Z,5.20
2018-04-17T05:08:11.493Z,5.50
2018-04-17T05:10:40.870Z,4.63
2018-04-17T05:13:10.271Z,4.90
2018-04-17T05:15:39.616Z,4.70
2018-04-17T05:18:08.969Z,4.70
2018-04-17T05:20:38.319Z,5.10
2018-04-17T05:23:07.689Z,5.07
2018-04-17T05:25:37.025Z,4.37
2018-04-17T05:28:06.427Z,4.77
2018-04-17T05:30:35.795Z,4.70
2018-04-17T05:33:05.149Z,4.43
2018-04-17T05:35:34.652Z,4.40
2018-04-17T05:38:04.015Z,4.80
2018-04-17T05:40:33.364Z,4.20
2018-04-17T05:43:02.716Z,3.50
2018-04-17T05:45:32.055Z,3.70
2018-04-17T05:48:01.424Z,4.80
2018-04-17T05:50:30.795Z,4.73
2018-04-17T05:53:00.157Z,4.10
2018-04-17T05:55:29.502Z,4.00
2018-04-17T05:57:58.853Z,4.00
2018-04-17T06:00:28.209Z,4.67
2018-04-17T06:02:57.585Z,4.43
2018-04-17T06:05:26.923Z,4.13
2018-04-17T06:07:56.332Z,4.13
2018-04-17T06:10:25.697Z,4.40
2018-04-17T06:12:53.701Z,4.17
2018-04-17T06:15:21.804Z,4.43
2018-04-17T06:17:49.871Z,4.53
2018-04-17T06:20:17.971Z,4.70
2018-04-17T06:22:46.074Z,4.40
2018-04-17T06:25:14.215Z,5.90
2018-04-17T06:27:42.288Z,4.50
2018-04-17T06:30:10.394Z,4.60
2018-04-17T06:32:38.503Z,4.90
2018-04-17T06:35:06.649Z,11.00
2018-04-17T06:37:34.696Z,9.45
2018-04-17T06:40:03.559Z,4.65
2018-04-17T06:42:31.667Z,4.57
2018-04-17T06:44:59.752Z,4.60
2018-04-17T06:47:28.257Z,4.30
2018-04-17T06:49:56.268Z,4.80
2018-04-17T06:52:24.387Z,3.78
2018-04-17T06:54:52.477Z,3.70
2018-04-17T06:57:20.608Z,4.12
2018-04-17T06:59:49.498Z,3.70
2018-04-17T07:02:18.360Z,4.22
2018-04-17T07:04:46.456Z,3.83
2018-04-17T07:07:14.558Z,3.72
2018-04-17T07:09:42.707Z,4.05
2018-04-17T07:12:10.786Z,4.12
2018-04-17T07:14:38.871Z,4.30
2018-04-17T07:17:07.003Z,4.70
2018-04-17T07:19:35.114Z,3.80
2018-04-17T07:22:03.976Z,4.30
2018-04-17T07:24:32.096Z,4.55
2018-04-17T07:27:01.002Z,5.20
2018-04-17T07:29:30.052Z,5.78
2018-04-17T07:31:58.180Z,4.62
2018-04-17T07:34:27.068Z,5.10
2018-04-17T07:36:55.160Z,4.57
2018-04-17T07:39:23.267Z,5.80
2018-04-17T07:41:51.393Z,4.70
2018-04-17T07:44:19.484Z,4.75
2018-04-17T07:46:59.363Z,4.32
2018-04-17T07:49:27.434Z,4.68
2018-04-17T07:51:55.569Z,5.03
2018-04-17T07:54:24.476Z,4.78
2018-04-17T07:56:53.336Z,5.28
2018-04-17T07:59:21.423Z,5.25
2018-04-17T08:01:49.628Z,6.30
2018-04-17T08:04:17.703Z,7.07
2018-04-17T08:06:45.811Z,5.22
2018-04-17T08:09:14.668Z,5.57
2018-04-17T08:11:42.774Z,5.22
2018-04-17T08:14:10.907Z,5.30
2018-04-17T08:16:39.033Z,5.22
2018-04-17T08:19:07.141Z,5.22
2018-04-17T08:21:35.250Z,4.97
2018-04-17T08:24:04.135Z,4.78
2018-04-17T08:26:33.013Z,5.93
2018-04-17T08:29:01.127Z,5.45
2018-04-17T08:31:29.990Z,5.53
2018-04-17T08:33:58.090Z,6.45
2018-04-17T08:36:26.216Z,4.62
2018-04-17T08:38:54.295Z,5.37
2018-04-17T08:41:22.397Z,5.25
2018-04-17T08:43:50.502Z,5.57
2018-04-17T08:46:18.661Z,6.20
2018-04-17T08:48:46.781Z,5.40
2018-04-17T08:51:14.907Z,6.12
2018-04-17T08:53:42.999Z,6.10
2018-04-17T08:56:11.841Z,6.47
2018-04-17T08:58:39.972Z,6.25
2018-04-17T09:01:08.092Z,6.82
2018-04-17T09:03:36.216Z,6.82
2018-04-17T09:06:04.331Z,6.57
2018-04-17T09:08:32.408Z,5.68
2018-04-17T09:11:00.529Z,6.47
2018-04-17T09:13:28.637Z,6.95
2018-04-17T09:15:56.792Z,5.95
2018-04-17T09:18:24.901Z,15.13
2018-04-17T09:20:52.985Z,7.20
2018-04-17T09:23:21.064Z,7.00
2018-04-17T09:25:49.165Z,6.68
2018-04-17T09:28:17.257Z,6.20
2018-04-17T09:30:45.360Z,6.12
2018-04-17T09:33:13.553Z,6.03
2018-04-17T09:35:41.621Z,5.53
2018-04-17T09:38:09.721Z,5.32
2018-04-17T09:40:37.812Z,5.47
2018-04-17T09:43:05.975Z,5.07
2018-04-17T09:45:34.076Z,5.57
2018-04-17T09:48:02.169Z,39.10
2018-04-17T09:50:31.102Z,5.47
2018-04-17T09:52:59.172Z,4.70
2018-04-17T09:55:28.096Z,5.55
2018-04-17T09:57:57.517Z,7.07
2018-04-17T10:00:25.487Z,6.53
2018-04-17T10:02:53.581Z,6.43
2018-04-17T10:05:21.641Z,6.30
2018-04-17T10:07:50.492Z,6.43
2018-04-17T10:10:18.560Z,6.05
2018-04-17T10:12:46.667Z,5.90
2018-04-17T10:15:14.776Z,6.70
2018-04-17T10:17:42.886Z,5.62
2018-04-17T10:20:11.756Z,7.25
2018-04-17T10:22:39.912Z,6.05
2018-04-17T10:25:08.084Z,6.28
2018-04-17T10:27:36.168Z,6.28
2018-04-17T10:30:04.295Z,5.60
2018-04-17T10:32:32.414Z,6.47
2018-04-17T10:35:01.280Z,6.30
2018-04-17T10:37:29.360Z,6.32
2018-04-17T10:39:57.460Z,5.78
2018-04-17T10:42:25.584Z,6.35
2018-04-17T10:44:53.733Z,6.43
2018-04-17T10:47:21.816Z,5.85
2018-04-17T10:49:49.941Z,5.37
2018-04-17T10:52:18.059Z,6.37
2018-04-17T10:54:46.176Z,7.00
2018-04-17T10:57:14.300Z,6.07
2018-04-17T10:59:43.189Z,5.47
2018-04-17T11:02:11.242Z,5.40
2018-04-17T11:04:39.341Z,6.68
2018-04-17T11:07:07.495Z,5.10
2018-04-17T11:09:35.620Z,6.00
2018-04-17T11:12:04.472Z,6.45
2018-04-17T11:14:32.618Z,6.43
2018-04-17T11:17:00.707Z,6.43
2018-04-17T11:19:28.786Z,5.40
2018-04-17T11:21:57.639Z,5.37
2018-04-17T11:24:25.715Z,5.07
2018-04-17T11:26:53.822Z,5.72
2018-04-17T11:29:21.922Z,4.28
2018-04-17T11:31:50.000Z,4.45
2018-04-17T11:34:18.087Z,4.70
2018-04-17T11:36:46.184Z,4.40
2018-04-17T11:39:14.285Z,3.92
2018-04-17T11:41:43.151Z,3.62
2018-04-17T11:44:12.809Z,3.33
2018-04-17T11:46:41.662Z,4.47
2018-04-17T11:49:09.776Z,4.35
2018-04-17T11:51:37.854Z,4.55
2018-04-17T11:54:05.974Z,3.83
2018-04-17T11:56:34.845Z,3.10
2018-04-17T11:59:02.937Z,2.75
2018-04-17T12:01:31.012Z,3.08
2018-04-17T12:03:59.148Z,3.83
2018-04-17T12:06:27.235Z,3.87
2018-04-17T12:08:55.340Z,3.58
2018-04-17T12:11:23.438Z,3.10
2018-04-17T12:13:51.521Z,3.10
2018-04-17T12:16:19.606Z,2.67
2018-04-17T12:18:47.716Z,2.70
2018-04-17T12:21:16.933Z,2.87
2018-04-17T12:23:45.012Z,2.80
2018-04-17T12:26:13.160Z,2.45
2018-04-17T12:28:41.262Z,2.60
2018-04-17T12:31:09.390Z,2.90
2018-04-17T12:33:37.470Z,2.97
2018-04-17T12:36:05.577Z,3.58
2018-04-17T12:38:33.695Z,3.62
2018-04-17T12:41:01.802Z,3.00
2018-04-17T12:43:29.890Z,2.72
2018-04-17T12:45:58.808Z,2.85
2018-04-17T12:48:26.941Z,3.00
2018-04-17T12:50:55.076Z,3.08
2018-04-17T12:53:23.931Z,2.72
2018-04-17T12:55:52.031Z,3.28
2018-04-17T12:58:20.124Z,2.80
2018-04-17T13:00:49.034Z,2.45
2018-04-17T13:03:17.146Z,2.58
2018-04-17T13:05:45.270Z,3.12
2018-04-17T13:08:13.408Z,2.83
2018-04-17T13:10:42.291Z,2.85
2018-04-17T13:13:10.413Z,2.67
2018-04-17T13:15:38.584Z,1.80
2018-04-17T13:18:06.655Z,2.60
2018-04-17T13:20:34.801Z,2.53
2018-04-17T13:23:02.925Z,2.70
2018-04-17T13:25:31.037Z,2.80
2018-04-17T13:27:59.205Z,2.65
2018-04-17T13:30:28.058Z,2.17
2018-04-17T13:32:56.182Z,2.33
2018-04-17T13:35:24.368Z,2.72
2018-04-17T13:37:53.410Z,2.75
2018-04-17T13:40:21.524Z,2.50
2018-04-17T13:42:49.656Z,2.37
2018-04-17T13:45:17.723Z,2.65
2018-04-17T13:47:45.914Z,2.30
2018-04-17T13:50:14.003Z,2.33
2018-04-17T13:52:42.083Z,2.30
2018-04-17T13:55:10.216Z,2.60
2018-04-17T13:57:38.314Z,2.80
2018-04-17T14:00:06.450Z,2.80
2018-04-17T14:02:35.362Z,2.37
2018-04-17T14:05:03.447Z,2.30
2018-04-17T14:07:32.295Z,2.42
2018-04-17T14:10:00.435Z,2.40
2018-04-17T14:12:29.301Z,2.00
2018-04-17T14:14:57.397Z,2.25
2018-04-17T14:17:25.555Z,2.05
2018-04-17T14:19:54.359Z,1.95
2018-04-17T14:22:22.501Z,2.03
2018-04-17T14:24:50.599Z,1.90
2018-04-17T14:27:18.691Z,1.90
2018-04-17T14:29:46.768Z,1.95
2018-04-17T14:32:14.868Z,2.10
2018-04-17T14:34:43.011Z,1.80
2018-04-17T14:37:11.922Z,1.95
2018-04-17T14:39:40.760Z,2.10
2018-04-17T14:42:08.877Z,2.40
2018-04-17T14:44:37.004Z,2.35
2018-04-17T14:47:05.893Z,2.10
2018-04-17T14:49:34.745Z,2.35
2018-04-17T14:52:02.857Z,2.00
2018-04-17T14:54:30.940Z,2.20
2018-04-17T14:56:59.015Z,2.20
2018-04-17T14:59:27.104Z,2.20
2018-04-17T15:01:55.264Z,2.47
2018-04-17T15:04:23.341Z,2.30
2018-04-17T15:06:51.421Z,2.53
2018-04-17T15:09:19.528Z,2.70
2018-04-17T15:11:47.646Z,2.47
2018-04-17T15:14:15.751Z,2.20
2018-04-17T15:16:44.684Z,2.97
2018-04-17T15:19:12.795Z,2.30
2018-04-17T15:21:40.921Z,2.40
2018-04-17T15:24:09.798Z,2.50
2018-04-17T15:26:37.904Z,2.40
2018-04-17T15:29:06.792Z,2.37
2018-04-17T15:31:34.879Z,2.20
2018-04-17T15:34:03.713Z,2.33
2018-04-17T15:36:31.824Z,2.50
2018-04-17T15:38:59.966Z,2.43
2018-04-17T15:41:28.849Z,2.50
2018-04-17T15:43:56.955Z,2.40
2018-04-17T15:46:25.857Z,2.60
2018-04-17T15:48:53.972Z,2.40
2018-04-17T15:51:22.051Z,2.53
2018-04-17T15:53:50.152Z,2.23
2018-04-17T15:56:18.244Z,2.40
2018-04-17T15:58:46.328Z,2.50
2018-04-17T16:01:14.424Z,2.67
2018-04-17T16:03:42.644Z,2.20
2018-04-17T16:06:10.654Z,2.40
2018-04-17T16:08:38.735Z,2.57
2018-04-17T16:11:06.844Z,2.17
2018-04-17T16:13:34.923Z,2.20
2018-04-17T16:16:03.015Z,2.63
2018-04-17T16:18:31.094Z,2.27
2018-04-17T16:20:59.184Z,3.70
2018-04-17T16:23:27.317Z,2.57
2018-04-17T16:25:55.405Z,2.57
2018-04-17T16:28:23.551Z,2.40
2018-04-17T16:30:51.661Z,2.83
2018-04-17T16:33:19.819Z,2.70
2018-04-17T16:35:47.913Z,2.07
2018-04-17T16:38:16.019Z,2.50
2018-04-17T16:40:44.137Z,2.30
2018-04-17T16:43:12.236Z,2.17
2018-04-17T16:45:40.341Z,2.57
2018-04-17T16:48:08.416Z,2.37
2018-04-17T16:50:36.543Z,2.30
2018-04-17T16:53:04.658Z,2.43
2018-04-17T16:55:33.519Z,2.50
2018-04-17T16:58:01.649Z,2.50
2018-04-17T17:00:30.517Z,2.90
2018-04-17T17:02:58.615Z,2.60
2018-04-17T17:05:26.799Z,2.70
2018-04-17T17:07:54.947Z,2.30
2018-04-17T17:10:23.007Z,2.33
2018-04-17T17:12:51.128Z,2.77
2018-04-17T17:15:19.238Z,2.33
2018-04-17T17:17:47.339Z,2.63
2018-04-17T17:20:16.185Z,2.60
2018-04-17T17:22:44.289Z,2.33
2018-04-17T17:25:12.400Z,2.40
2018-04-17T17:27:41.266Z,2.97
2018-04-17T17:30:09.380Z,2.87
2018-04-17T17:32:37.481Z,3.17
2018-04-17T17:35:06.330Z,2.50
2018-04-17T17:37:34.423Z,2.80
2018-04-17T17:40:02.562Z,2.60
2018-04-17T17:42:31.409Z,2.53
2018-04-17T17:44:59.514Z,2.83
2018-04-17T17:47:27.631Z,2.40
2018-04-17T17:49:56.509Z,2.87
2018-04-17T17:52:24.610Z,2.90
2018-04-17T17:54:53.475Z,3.17
2018-04-17T17:57:21.557Z,3.50
2018-04-17T17:59:49.684Z,4.00
2018-04-17T18:02:18.544Z,3.83
2018-04-17T18:04:46.645Z,3.80
2018-04-17T18:07:14.774Z,3.97
2018-04-17T18:09:42.889Z,4.20
2018-04-17T18:12:10.986Z,4.10
2018-04-17T18:14:39.092Z,3.90
2018-04-17T18:17:07.166Z,3.50
2018-04-17T18:19:35.279Z,2.87
2018-04-17T18:22:03.363Z,3.23
2018-04-17T18:24:32.259Z,3.40
2018-04-17T18:27:00.416Z,3.27
2018-04-17T18:29:28.589Z,3.40
2018-04-17T18:31:56.646Z,4.63
2018-04-17T18:34:24.778Z,4.60
2018-04-17T18:36:52.910Z,4.60
2018-04-17T18:39:21.039Z,4.30
2018-04-17T18:41:49.151Z,4.93
2018-04-17T18:44:18.023Z,4.70
2018-04-17T18:46:46.123Z,4.57
2018-04-17T18:49:14.258Z,4.50
2018-04-17T18:51:43.138Z,4.43
2018-04-17T18:54:11.293Z,4.70
2018-04-17T18:56:39.361Z,4.67
2018-04-17T18:59:07.462Z,5.07
2018-04-17T19:01:35.587Z,4.80
2018-04-17T19:04:04.456Z,4.70
2018-04-17T19:06:32.577Z,4.50
2018-04-17T19:09:01.396Z,4.57
2018-04-17T19:11:29.521Z,5.90
2018-04-17T19:13:57.724Z,5.03
2018-04-17T19:16:25.844Z,5.10
2018-04-17T19:18:53.952Z,5.23
2018-04-17T19:21:22.048Z,5.40
2018-04-17T19:23:50.131Z,5.80
2018-04-17T19:26:18.242Z,6.40
2018-04-17T19:28:46.336Z,6.60
2018-04-17T19:31:14.485Z,6.60
2018-04-17T19:33:42.635Z,12.30
2018-04-17T19:36:10.767Z,12.30
2018-04-17T19:38:38.852Z,8.77
2018-04-17T19:41:06.972Z,7.50
2018-04-17T19:43:35.848Z,7.93
2018-04-17T19:46:04.764Z,7.87
2018-04-17T19:48:32.896Z,6.60
2018-04-17T19:51:00.976Z,7.50
2018-04-17T19:53:29.075Z,8.27
2018-04-17T19:55:57.165Z,6.43
2018-04-17T19:58:25.269Z,7.57
2018-04-17T20:00:53.408Z,7.00
2018-04-17T20:03:21.516Z,7.33
2018-04-17T20:05:49.647Z,7.93
2018-04-17T20:08:17.716Z,7.10
2018-04-17T20:10:45.872Z,7.70
2018-04-17T20:13:13.967Z,7.20
2018-04-17T20:15:42.071Z,7.20
2018-04-17T20:18:10.166Z,7.20
2018-04-17T20:20:38.290Z,8.20
2018-04-17T20:23:06.348Z,7.50
2018-04-17T20:25:34.439Z,7.47
2018-04-17T20:28:02.552Z,7.63
2018-04-17T20:30:30.649Z,9.03
2018-04-17T20:32:58.786Z,8.13
2018-04-17T20:35:26.894Z,7.27
2018-04-17T20:37:55.724Z,7.30
2018-04-17T20:40:23.807Z,7.13
2018-04-17T20:42:51.876Z,7.53
2018-04-17T20:45:19.963Z,6.50
2018-04-17T20:47:48.066Z,6.23
2018-04-17T20:50:16.204Z,6.43
2018-04-17T20:52:44.355Z,6.57
2018-04-17T20:55:12.473Z,6.57
2018-04-17T20:57:40.557Z,6.37
2018-04-17T21:00:08.628Z,13.70
2018-04-17T21:02:36.740Z,6.90
2018-04-17T21:05:05.631Z,6.03
2018-04-17T21:07:33.728Z,13.30
2018-04-17T21:10:02.727Z,14.00
2018-04-17T21:12:31.610Z,11.33
2018-04-17T21:14:59.730Z,10.10
2018-04-17T21:17:28.583Z,9.10
2018-04-17T21:19:56.658Z,6.67
2018-04-17T21:22:24.847Z,6.87
2018-04-17T21:24:52.945Z,7.83
2018-04-17T21:27:21.078Z,6.90
2018-04-17T21:29:49.974Z,6.70
2018-04-17T21:32:18.859Z,6.80
2018-04-17T21:34:46.945Z,6.17
2018-04-17T21:37:15.040Z,5.83
2018-04-17T21:39:43.881Z,6.50
2018-04-17T21:42:11.968Z,6.63
2018-04-17T21:44:40.029Z,6.60
2018-04-17T21:47:08.140Z,6.30
2018-04-17T21:49:36.211Z,6.43
2018-04-17T21:52:04.275Z,7.03
2018-04-17T21:54:32.370Z,7.43
2018-04-17T21:57:00.509Z,9.30
2018-04-17T21:59:28.598Z,7.23
2018-04-17T22:01:56.852Z,7.80
2018-04-17T22:04:24.966Z,9.00
2018-04-17T22:06:53.048Z,7.00
2018-04-17T22:09:21.138Z,9.87
2018-04-17T22:11:49.279Z,7.97
2018-04-17T22:14:17.400Z,8.43
2018-04-17T22:16:45.503Z,7.83
2018-04-17T22:19:13.595Z,8.47
2018-04-17T22:21:41.668Z,10.87
2018-04-17T22:24:09.781Z,9.40
2018-04-17T22:26:38.606Z,7.93
2018-04-17T22:29:06.704Z,8.13
2018-04-17T22:31:34.858Z,8.73
2018-04-17T22:34:03.704Z,8.43
2018-04-17T22:36:31.806Z,8.47
2018-04-17T22:38:59.949Z,7.50
2018-04-17T22:41:28.049Z,7.20
2018-04-17T22:43:56.207Z,7.47
2018-04-17T22:46:25.091Z,7.90
2018-04-17T22:48:53.170Z,8.07
2018-04-17T22:51:21.315Z,6.97
2018-04-17T22:53:49.402Z,7.93
2018-04-17T22:56:17.488Z,7.17
2018-04-17T22:58:45.614Z,7.30
2018-04-17T23:01:13.721Z,7.20
2018-04-17T23:03:41.789Z,7.17
2018-04-17T23:06:09.881Z,7.47
2018-04-17T23:08:38.021Z,7.27
2018-04-17T23:11:06.139Z,7.90
2018-04-17T23:13:34.216Z,7.40
2018-04-17T23:16:02.273Z,7.23
2018-04-17T23:18:30.400Z,7.93
2018-04-17T23:20:59.233Z,7.80
2018-04-17T23:23:27.321Z,7.27
2018-04-17T23:25:55.424Z,7.23
2018-04-17T23:28:23.514Z,7.53
2018-04-17T23:30:51.604Z,7.33
2018-04-17T23:33:19.728Z,7.97
2018-04-17T23:35:47.799Z,7.87
2018-04-17T23:38:16.695Z,7.50
2018-04-17T23:40:44.781Z,8.00
2018-04-17T23:43:12.880Z,7.87
2018-04-17T23:45:41.742Z,7.47
2018-04-17T23:48:09.841Z,8.70
2018-04-17T23:50:37.958Z,8.47
2018-04-17T23:53:06.891Z,7.90
2018-04-17T23:55:34.955Z,7.50
2018-04-17T23:58:03.823Z,7.20
